createdAt,value
2023-06-14T00:01:04.529Z,96307.38
2023-06-14T00:03:33.354Z,96324.59
2023-06-14T00:05:59.909Z,96316.19
2023-06-14T00:08:26.840Z,96320.59
2023-06-14T00:10:53.523Z,96313.78
2023-06-14T00:13:20.047Z,96313.06
2023-06-14T00:15:47.793Z,96323.47
2023-06-14T00:18:14.438Z,96315.72
2023-06-14T00:20:42.827Z,96314.13
2023-06-14T00:23:09.622Z,96316.75
2023-06-14T00:25:36.229Z,96316.84
2023-06-14T00:28:03.615Z,96318.66
2023-06-14T00:30:31.980Z,96321.31
2023-06-14T00:32:59.121Z,96317.13
2023-06-14T00:35:26.471Z,96321.44
2023-06-14T00:37:53.405Z,96313.72
2023-06-14T00:40:19.980Z,96309.50
2023-06-14T00:42:46.541Z,96322.47
2023-06-14T00:45:13.649Z,96306.19
2023-06-14T00:47:42.928Z,96308.91
2023-06-14T00:50:10.323Z,96314.88
2023-06-14T00:52:37.385Z,96318.47
2023-06-14T00:55:04.594Z,96311.63
2023-06-14T00:57:31.251Z,96312.56
2023-06-14T00:59:58.448Z,96316.00
2023-06-14T01:02:28.592Z,96310.94
2023-06-14T01:04:55.329Z,96312.69
2023-06-14T01:07:58.301Z,96317.13
2023-06-14T01:10:42.378Z,96310.31
2023-06-14T01:13:24.837Z,96301.84
2023-06-14T01:15:52.110Z,96310.41
2023-06-14T01:18:19.430Z,96310.56
2023-06-14T01:20:50.845Z,96317.41
2023-06-14T01:23:18.772Z,96321.84
2023-06-14T01:25:45.607Z,96317.56
2023-06-14T01:28:13.822Z,96320.13
2023-06-14T01:30:46.595Z,96313.31
2023-06-14T01:33:19.070Z,96315.81
2023-06-14T01:35:53.125Z,96322.63
2023-06-14T01:38:25.647Z,96313.28
2023-06-14T01:40:54.656Z,96301.41
2023-06-14T01:43:21.861Z,96313.47
2023-06-14T01:45:51.506Z,96309.28
2023-06-14T01:48:18.122Z,96303.38
2023-06-14T01:50:44.605Z,96311.94
2023-06-14T01:53:11.864Z,96305.16
2023-06-14T01:55:39.660Z,96303.53
2023-06-14T01:58:06.595Z,96306.13
2023-06-14T02:00:33.939Z,96312.25
2023-06-14T02:03:01.104Z,96309.81
2023-06-14T02:05:27.955Z,96307.22
2023-06-14T02:07:54.689Z,96312.41
2023-06-14T02:10:21.840Z,96306.47
2023-06-14T02:12:49.638Z,96309.94
2023-06-14T02:15:20.469Z,96305.69
2023-06-14T02:17:53.409Z,96313.44
2023-06-14T02:20:20.028Z,96310.03
2023-06-14T02:22:46.665Z,96303.22
2023-06-14T02:25:13.428Z,96310.06
2023-06-14T02:27:39.937Z,96319.56
2023-06-14T02:30:07.055Z,96317.97
2023-06-14T02:32:36.551Z,96324.84
2023-06-14T02:35:04.670Z,96321.50
2023-06-14T02:37:31.520Z,96322.41
2023-06-14T02:39:58.147Z,96319.06
2023-06-14T02:42:24.812Z,96319.97
2023-06-14T02:44:52.260Z,96319.13
2023-06-14T02:47:19.756Z,96319.13
2023-06-14T02:49:49.670Z,96325.16
2023-06-14T02:52:16.503Z,96318.34
2023-06-14T02:54:43.172Z,96322.63
2023-06-14T02:57:09.801Z,96321.78
2023-06-14T02:59:36.422Z,96320.88
2023-06-14T03:02:04.021Z,96323.50
2023-06-14T03:04:30.523Z,96324.41
2023-06-14T03:06:57.399Z,96322.66
2023-06-14T03:09:23.902Z,96330.41
2023-06-14T03:11:50.488Z,96328.78
2023-06-14T03:14:18.377Z,96319.38
2023-06-14T03:16:45.220Z,96328.81
2023-06-14T03:19:12.461Z,96330.47
2023-06-14T03:21:39.928Z,96332.22
2023-06-14T03:24:06.874Z,96319.47
2023-06-14T03:26:35.488Z,96336.53
2023-06-14T03:29:02.160Z,96336.50
2023-06-14T03:31:33.684Z,96329.69
2023-06-14T03:34:00.879Z,96335.69
2023-06-14T03:36:27.454Z,96335.69
2023-06-14T03:38:53.903Z,96343.34
2023-06-14T03:41:20.444Z,96333.13
2023-06-14T03:43:46.868Z,96350.22
2023-06-14T03:46:13.328Z,96345.09
2023-06-14T03:48:39.973Z,96343.44
2023-06-14T03:51:06.632Z,96348.56
2023-06-14T03:53:33.134Z,96357.03
2023-06-14T03:56:01.243Z,96345.91
2023-06-14T03:58:27.791Z,96349.34
2023-06-14T04:00:54.534Z,96356.19
2023-06-14T04:03:26.191Z,96363.00
2023-06-14T04:05:57.738Z,96360.41
2023-06-14T04:08:25.731Z,96361.31
2023-06-14T04:10:52.554Z,96360.41
2023-06-14T04:13:18.991Z,96352.75
2023-06-14T04:15:46.959Z,96358.72
2023-06-14T04:18:14.583Z,96368.09
2023-06-14T04:20:42.375Z,96374.94
2023-06-14T04:23:18.981Z,96374.03
2023-06-14T04:25:49.890Z,96375.72
2023-06-14T04:28:16.809Z,96375.72
2023-06-14T04:30:44.184Z,96384.34
2023-06-14T04:33:11.026Z,96387.78
2023-06-14T04:35:38.294Z,96378.41
2023-06-14T04:38:10.816Z,96379.25
2023-06-14T04:40:43.680Z,96377.50
2023-06-14T04:43:13.881Z,96386.91
2023-06-14T04:45:41.121Z,96378.34
2023-06-14T04:48:07.861Z,96376.63
2023-06-14T04:50:34.435Z,96386.88
2023-06-14T04:53:00.980Z,96391.06
2023-06-14T04:55:27.816Z,96391.00
2023-06-14T04:57:54.454Z,96386.63
2023-06-14T05:00:24.501Z,96389.97
2023-06-14T05:02:54.189Z,96388.19
2023-06-14T05:05:21.011Z,96389.84
2023-06-14T05:07:47.693Z,96394.91
2023-06-14T05:10:14.337Z,96393.13
2023-06-14T05:12:40.896Z,96402.53
2023-06-14T05:15:09.847Z,96393.06
2023-06-14T05:17:37.171Z,96395.56
2023-06-14T05:20:04.535Z,96395.50
2023-06-14T05:22:31.210Z,96387.59
2023-06-14T05:24:57.770Z,96393.44
2023-06-14T05:27:25.917Z,96400.09
2023-06-14T05:29:56.652Z,96397.44
2023-06-14T05:32:23.214Z,96406.69
2023-06-14T05:34:49.821Z,96403.97
2023-06-14T05:37:16.597Z,96412.31
2023-06-14T05:39:43.055Z,96405.31
2023-06-14T05:42:09.571Z,96404.91
2023-06-14T05:44:36.254Z,96406.53
2023-06-14T05:47:03.154Z,96407.19
2023-06-14T05:49:29.746Z,96407.81
2023-06-14T05:52:04.277Z,96417.97
2023-06-14T05:54:32.086Z,96415.09
2023-06-14T05:57:04.460Z,96420.78
2023-06-14T05:59:30.963Z,96420.53
2023-06-14T06:01:57.415Z,96413.41
2023-06-14T06:04:24.821Z,96420.03
2023-06-14T06:06:51.414Z,96406.03
2023-06-14T06:09:17.998Z,96412.59
2023-06-14T06:11:52.629Z,96406.28
2023-06-14T06:14:19.979Z,96412.91
2023-06-14T06:16:46.602Z,96417.00
2023-06-14T06:19:13.263Z,96414.09
2023-06-14T06:21:39.730Z,96422.38
2023-06-14T06:24:06.945Z,96425.41
2023-06-14T06:26:33.610Z,96424.19
2023-06-14T06:29:00.368Z,96426.34
2023-06-14T06:31:28.686Z,96434.50
2023-06-14T06:33:56.778Z,96440.88
2023-06-14T06:36:23.698Z,96443.09
2023-06-14T06:38:50.348Z,96420.28
2023-06-14T06:41:16.935Z,96433.53
2023-06-14T06:43:43.963Z,96444.41
2023-06-14T06:46:10.495Z,96435.47
2023-06-14T06:48:37.000Z,96440.94
2023-06-14T06:51:03.649Z,96439.63
2023-06-14T06:53:39.232Z,96433.19
2023-06-14T06:56:08.282Z,96447.47
2023-06-14T06:58:34.860Z,96451.66
2023-06-14T07:01:01.485Z,96444.41
2023-06-14T07:03:28.009Z,96458.09
2023-06-14T07:05:54.659Z,96450.97
2023-06-14T07:08:21.301Z,96457.22
2023-06-14T07:10:47.746Z,96462.63
2023-06-14T07:13:14.922Z,96456.16
2023-06-14T07:15:41.363Z,96454.06
2023-06-14T07:18:08.083Z,96462.41
2023-06-14T07:20:34.684Z,96453.72
2023-06-14T07:23:01.372Z,96469.34
2023-06-14T07:25:28.132Z,96465.00
2023-06-14T07:27:54.581Z,96460.41
2023-06-14T07:30:21.212Z,96466.84
2023-06-14T07:32:47.852Z,96468.75
2023-06-14T07:35:14.761Z,96467.91
2023-06-14T07:37:41.440Z,96473.22
2023-06-14T07:40:09.060Z,96470.53
2023-06-14T07:42:36.840Z,96474.69
2023-06-14T07:45:04.736Z,96475.69
2023-06-14T07:47:31.299Z,96476.50
2023-06-14T07:49:57.894Z,96483.34
2023-06-14T07:52:24.494Z,96479.31
2023-06-14T07:54:51.119Z,96481.97
2023-06-14T07:57:17.638Z,96473.69
2023-06-14T07:59:44.058Z,96476.97
2023-06-14T08:02:10.645Z,96474.78
2023-06-14T08:04:37.284Z,96474.72
2023-06-14T08:07:05.519Z,96476.06
2023-06-14T08:09:33.549Z,96483.53
2023-06-14T08:12:00.166Z,96473.19
2023-06-14T08:14:26.913Z,96476.16
2023-06-14T08:16:53.617Z,96478.41
2023-06-14T08:19:20.958Z,96479.75
2023-06-14T08:21:48.408Z,96478.75
2023-06-14T08:24:15.160Z,96483.66
2023-06-14T08:26:42.446Z,96481.13
2023-06-14T08:29:09.062Z,96478.34
2023-06-14T08:31:35.974Z,96481.72
2023-06-14T08:34:04.150Z,96483.31
2023-06-14T08:36:31.954Z,96487.13
2023-06-14T08:38:58.415Z,96488.22
2023-06-14T08:41:28.254Z,96489.97
2023-06-14T08:43:54.755Z,96484.56
2023-06-14T08:46:21.403Z,96488.06
2023-06-14T08:48:50.700Z,96489.53
2023-06-14T08:51:22.887Z,96498.91
2023-06-14T08:53:58.875Z,96485.56
2023-06-14T08:56:30.361Z,96494.59
2023-06-14T08:59:02.315Z,96495.09
2023-06-14T09:01:28.833Z,96489.53
2023-06-14T09:03:58.776Z,96487.28
2023-06-14T09:06:25.868Z,96494.41
2023-06-14T09:08:53.027Z,96499.34
2023-06-14T09:11:20.263Z,96499.63
2023-06-14T09:13:47.734Z,96499.69
2023-06-14T09:16:14.184Z,96500.88
2023-06-14T09:18:44.618Z,96503.44
2023-06-14T09:21:12.694Z,96509.00
2023-06-14T09:23:41.854Z,96507.16
2023-06-14T09:26:12.231Z,96507.97
2023-06-14T09:28:49.038Z,96500.31
2023-06-14T09:31:17.838Z,96511.00
2023-06-14T09:33:49.887Z,96497.78
2023-06-14T09:36:18.461Z,96502.44
2023-06-14T09:38:59.320Z,96499.88
2023-06-14T09:41:34.049Z,96498.00
2023-06-14T09:44:04.863Z,96503.22
2023-06-14T09:46:35.652Z,96498.63
2023-06-14T09:49:03.608Z,96499.91
2023-06-14T09:51:34.103Z,96503.16
2023-06-14T09:54:05.529Z,96504.56
2023-06-14T09:56:36.465Z,96502.88
2023-06-14T09:59:08.799Z,96506.88
2023-06-14T10:01:36.894Z,96503.19
2023-06-14T10:04:09.819Z,96505.97
2023-06-14T10:06:40.309Z,96497.56
2023-06-14T10:09:09.602Z,96507.72
2023-06-14T10:11:37.056Z,96507.69
2023-06-14T10:14:06.677Z,96509.16
2023-06-14T10:16:52.300Z,96507.09
2023-06-14T10:19:35.518Z,96505.47
2023-06-14T10:22:08.395Z,96504.19
2023-06-14T10:24:41.872Z,96500.63
2023-06-14T10:27:12.261Z,96501.16
2023-06-14T10:29:54.009Z,96501.97
2023-06-14T10:32:21.895Z,96496.47
2023-06-14T10:34:57.107Z,96492.94
2023-06-14T10:37:23.950Z,96497.41
2023-06-14T10:39:54.544Z,96501.78
2023-06-14T10:42:21.185Z,96505.47
2023-06-14T10:45:06.619Z,96496.56
2023-06-14T10:47:36.765Z,96499.03
2023-06-14T10:50:03.578Z,96491.25
2023-06-14T10:52:36.756Z,96490.16
2023-06-14T10:55:17.847Z,96506.81
2023-06-14T10:57:57.060Z,96496.09
2023-06-14T11:00:27.127Z,96491.81
2023-06-14T11:03:06.794Z,96501.81
2023-06-14T11:05:50.944Z,96485.56
2023-06-14T11:08:23.424Z,96489.03
2023-06-14T11:10:51.412Z,96489.88
2023-06-14T11:13:18.653Z,96488.00
2023-06-14T11:15:52.760Z,96495.59
2023-06-14T11:18:19.648Z,96489.47
2023-06-14T11:20:48.067Z,96485.78
2023-06-14T11:23:14.934Z,96488.63
2023-06-14T11:25:41.430Z,96488.56
2023-06-14T11:28:08.221Z,96490.84
2023-06-14T11:30:35.021Z,96491.97
2023-06-14T11:33:01.733Z,96493.16
2023-06-14T11:35:28.577Z,96495.00
2023-06-14T11:37:57.780Z,96498.47
2023-06-14T11:40:28.907Z,96494.94
2023-06-14T11:43:03.089Z,96499.94
2023-06-14T11:45:31.067Z,96491.13
2023-06-14T11:47:59.026Z,96487.56
2023-06-14T11:50:27.012Z,96482.09
2023-06-14T11:52:56.098Z,96476.72
2023-06-14T11:55:23.837Z,96472.78
2023-06-14T11:57:53.205Z,96478.28
2023-06-14T12:00:22.354Z,96472.72
2023-06-14T12:02:57.132Z,96475.56
2023-06-14T12:05:25.517Z,96478.84
2023-06-14T12:08:01.322Z,96474.03
2023-06-14T12:10:29.284Z,96476.06
2023-06-14T12:13:00.401Z,96481.16
2023-06-14T12:15:30.587Z,96482.22
2023-06-14T12:17:58.458Z,96471.63
2023-06-14T12:20:30.767Z,96463.06
2023-06-14T12:22:59.513Z,96466.69
2023-06-14T12:25:35.230Z,96462.88
2023-06-14T12:28:09.957Z,96467.69
2023-06-14T12:30:38.149Z,96458.91
2023-06-14T12:33:06.732Z,96461.53
2023-06-14T12:35:33.439Z,96449.47
2023-06-14T12:37:59.922Z,96458.13
2023-06-14T12:40:27.544Z,96460.16
2023-06-14T12:42:53.990Z,96451.81
2023-06-14T12:45:20.431Z,96459.53
2023-06-14T12:47:47.087Z,96450.41
2023-06-14T12:50:13.844Z,96458.97
2023-06-14T12:52:40.461Z,96459.03
2023-06-14T12:55:07.729Z,96464.97
2023-06-14T12:57:36.199Z,96459.13
2023-06-14T13:00:02.831Z,96478.16
2023-06-14T13:02:30.083Z,96468.13
2023-06-14T13:04:58.079Z,96470.91
2023-06-14T13:07:24.710Z,96466.31
2023-06-14T13:09:51.367Z,96469.94
2023-06-14T13:12:17.807Z,96469.28
2023-06-14T13:14:44.254Z,96478.44
2023-06-14T13:17:11.416Z,96476.28
2023-06-14T13:22:04.797Z,96476.44
2023-06-14T13:24:31.974Z,96479.56
2023-06-14T13:26:58.824Z,96471.94
2023-06-14T13:29:25.867Z,96468.94
2023-06-14T13:31:52.576Z,96475.34
2023-06-14T13:34:19.243Z,96481.63
2023-06-14T13:36:45.775Z,96471.81
2023-06-14T13:39:13.077Z,96464.34
2023-06-14T13:41:39.533Z,96464.72
2023-06-14T13:44:06.129Z,96461.78
2023-06-14T13:46:32.768Z,96457.38
2023-06-14T13:48:59.271Z,96456.78
2023-06-14T13:51:27.610Z,96451.03
2023-06-14T13:53:55.340Z,96451.81
2023-06-14T13:56:23.656Z,96446.28
2023-06-14T13:58:50.087Z,96447.81
2023-06-14T14:01:16.928Z,96447.69
2023-06-14T14:03:43.478Z,96446.25
2023-06-14T14:06:10.832Z,96449.19
2023-06-14T14:08:37.545Z,96456.56
2023-06-14T14:11:04.242Z,96447.28
2023-06-14T14:13:30.806Z,96453.09
2023-06-14T14:15:57.612Z,96457.63
2023-06-14T14:18:24.272Z,96444.88
2023-06-14T14:20:51.097Z,96450.22
2023-06-14T14:23:17.960Z,96445.34
2023-06-14T14:25:44.595Z,96444.03
2023-06-14T14:28:12.281Z,96449.13
2023-06-14T14:30:41.176Z,96444.47
2023-06-14T14:33:08.028Z,96446.78
2023-06-14T14:35:34.762Z,96439.56
2023-06-14T14:38:01.471Z,96447.34
2023-06-14T14:40:27.946Z,96444.25
2023-06-14T14:42:54.586Z,96446.34
2023-06-14T14:45:21.027Z,96438.50
2023-06-14T14:47:47.512Z,96456.97
2023-06-14T14:50:14.373Z,96452.53
2023-06-14T14:52:41.166Z,96454.28
2023-06-14T14:55:08.314Z,96450.53
2023-06-14T14:57:34.787Z,96449.38
2023-06-14T15:00:01.200Z,96453.19
2023-06-14T15:02:27.651Z,96454.50
2023-06-14T15:04:55.422Z,96454.00
2023-06-14T15:07:21.937Z,96455.19
2023-06-14T15:09:51.569Z,96456.47
2023-06-14T15:12:18.102Z,96459.47
2023-06-14T15:14:44.727Z,96458.28
2023-06-14T15:17:11.298Z,96465.69
2023-06-14T15:19:37.778Z,96458.25
2023-06-14T15:22:04.484Z,96461.34
2023-06-14T15:24:43.091Z,96459.25
2023-06-14T15:27:13.278Z,96454.72
2023-06-14T15:29:42.869Z,96456.53
2023-06-14T15:34:36.371Z,96452.53
2023-06-14T15:37:03.601Z,96450.22
2023-06-14T15:39:32.881Z,96453.69
2023-06-14T15:42:00.344Z,96452.91
2023-06-14T15:44:27.530Z,96451.41
2023-06-14T15:46:54.036Z,96445.63
2023-06-14T15:49:20.595Z,96447.66
2023-06-14T15:51:47.022Z,96458.69
2023-06-14T15:54:13.514Z,96453.84
2023-06-14T15:56:39.920Z,96443.56
2023-06-14T15:59:08.297Z,96448.25
2023-06-14T16:01:34.864Z,96446.31
2023-06-14T16:04:01.533Z,96452.94
2023-06-14T16:06:28.094Z,96443.31
2023-06-14T16:08:54.675Z,96456.56
2023-06-14T16:11:21.115Z,96452.56
2023-06-14T16:13:47.776Z,96454.09
2023-06-14T16:16:14.259Z,96448.19
2023-06-14T16:18:40.946Z,96450.25
2023-06-14T16:21:10.132Z,96452.19
2023-06-14T16:23:37.073Z,96453.41
2023-06-14T16:26:03.824Z,96465.28
2023-06-14T16:28:32.833Z,96462.09
2023-06-14T16:30:59.296Z,96455.47
2023-06-14T16:33:25.908Z,96468.47
2023-06-14T16:35:52.550Z,96471.22
2023-06-14T16:38:20.127Z,96465.56
2023-06-14T16:40:46.670Z,96469.66
2023-06-14T16:43:13.099Z,96473.28
2023-06-14T16:45:39.842Z,96475.06
2023-06-14T16:48:06.708Z,96471.88
2023-06-14T16:50:35.429Z,96479.09
2023-06-14T16:53:03.456Z,96476.56
2023-06-14T16:55:30.010Z,96480.03
2023-06-14T16:57:56.469Z,96478.09
2023-06-14T17:00:23.002Z,96482.53
2023-06-14T17:02:49.780Z,96486.84
2023-06-14T17:05:16.575Z,96483.34
2023-06-14T17:07:43.060Z,96484.13
2023-06-14T17:10:09.846Z,96492.78
2023-06-14T17:12:36.417Z,96502.94
2023-06-14T17:15:04.339Z,96502.03
2023-06-14T17:17:30.880Z,96509.16
2023-06-14T17:19:57.384Z,96507.31
2023-06-14T17:22:23.806Z,96508.38
2023-06-14T17:24:50.460Z,96504.44
2023-06-14T17:27:17.304Z,96510.56
2023-06-14T17:29:43.836Z,96509.78
2023-06-14T17:32:10.382Z,96509.09
2023-06-14T17:34:37.007Z,96508.44
2023-06-14T17:37:04.203Z,96512.25
2023-06-14T17:39:30.651Z,96510.69
2023-06-14T17:41:57.077Z,96517.84
2023-06-14T17:44:23.525Z,96522.53
2023-06-14T17:46:50.041Z,96516.75
2023-06-14T17:49:16.470Z,96521.19
2023-06-14T17:51:42.972Z,96523.06
2023-06-14T17:54:09.554Z,96526.59
2023-06-14T17:56:36.010Z,96531.09
2023-06-14T17:59:02.705Z,96536.47
2023-06-14T18:01:29.288Z,96528.91
2023-06-14T18:03:55.822Z,96530.97
2023-06-14T18:06:22.318Z,96533.63
2023-06-14T18:08:49.294Z,96538.94
2023-06-14T18:11:16.591Z,96536.59
2023-06-14T18:13:44.622Z,96536.94
2023-06-14T18:16:14.807Z,96542.16
2023-06-14T18:18:42.296Z,96539.75
2023-06-14T18:21:08.847Z,96539.94
2023-06-14T18:23:35.753Z,96550.31
2023-06-14T18:26:02.220Z,96544.56
2023-06-14T18:28:28.799Z,96550.03
2023-06-14T18:30:55.314Z,96554.34
2023-06-14T18:33:21.968Z,96553.63
2023-06-14T18:35:48.596Z,96555.69
2023-06-14T18:38:15.141Z,96558.69
2023-06-14T18:40:42.797Z,96561.53
2023-06-14T18:43:11.413Z,96563.63
2023-06-14T18:45:38.885Z,96561.38
2023-06-14T18:48:05.791Z,96569.38
2023-06-14T18:50:32.422Z,96572.44
2023-06-14T18:52:59.050Z,96578.91
2023-06-14T18:55:25.759Z,96578.28
2023-06-14T18:57:52.355Z,96586.28
2023-06-14T19:00:19.364Z,96582.13
2023-06-14T19:02:47.122Z,96589.47
2023-06-14T19:05:13.667Z,96587.94
2023-06-14T19:07:40.240Z,96601.16
2023-06-14T19:10:07.210Z,96600.47
2023-06-14T19:12:33.672Z,96596.31
2023-06-14T19:15:00.865Z,96601.72
2023-06-14T19:17:28.883Z,96602.81
2023-06-14T19:19:55.689Z,96602.09
2023-06-14T19:22:22.200Z,96600.66
2023-06-14T19:24:48.675Z,96609.25
2023-06-14T19:27:15.497Z,96605.25
2023-06-14T19:29:41.944Z,96613.25
2023-06-14T19:32:08.693Z,96619.47
2023-06-14T19:34:35.280Z,96620.47
2023-06-14T19:37:03.035Z,96623.28
2023-06-14T19:39:29.617Z,96629.56
2023-06-14T19:41:56.110Z,96634.03
2023-06-14T19:44:22.654Z,96628.19
2023-06-14T19:46:49.138Z,96634.44
2023-06-14T19:49:15.679Z,96634.69
2023-06-14T19:51:42.135Z,96639.16
2023-06-14T19:54:08.922Z,96647.97
2023-06-14T19:56:35.433Z,96647.28
2023-06-14T19:59:02.983Z,96649.25
2023-06-14T20:01:29.539Z,96645.19
2023-06-14T20:03:56.238Z,96660.00
2023-06-14T20:06:23.029Z,96656.88
2023-06-14T20:08:49.683Z,96658.75
2023-06-14T20:11:17.326Z,96661.47
2023-06-14T20:13:46.312Z,96657.31
2023-06-14T20:16:13.435Z,96663.53
2023-06-14T20:18:40.115Z,96658.41
2023-06-14T20:21:06.915Z,96663.00
2023-06-14T20:23:33.538Z,96666.34
2023-06-14T20:26:01.428Z,96666.47
2023-06-14T20:28:28.438Z,96666.47
2023-06-14T20:30:55.186Z,96671.81
2023-06-14T20:33:22.770Z,96665.06
2023-06-14T20:35:49.792Z,96669.47
2023-06-14T20:38:16.458Z,96674.88
2023-06-14T20:40:43.095Z,96667.16
2023-06-14T20:43:13.118Z,96671.41
2023-06-14T20:45:40.616Z,96671.63
2023-06-14T20:48:07.370Z,96667.59
2023-06-14T20:50:34.059Z,96679.56
2023-06-14T20:53:00.819Z,96677.19
2023-06-14T20:55:29.136Z,96676.31
2023-06-14T20:57:56.967Z,96673.00
2023-06-14T21:00:23.519Z,96676.47
2023-06-14T21:02:50.433Z,96675.69
2023-06-14T21:05:18.133Z,96679.25
2023-06-14T21:07:44.800Z,96673.44
2023-06-14T21:10:11.622Z,96679.47
2023-06-14T21:12:38.087Z,96676.13
2023-06-14T21:15:05.538Z,96680.56
2023-06-14T21:17:33.129Z,96676.25
2023-06-14T21:19:59.731Z,96678.91
2023-06-14T21:22:26.697Z,96675.59
2023-06-14T21:24:53.231Z,96671.44
2023-06-14T21:27:19.773Z,96674.06
2023-06-14T21:29:46.527Z,96674.19
2023-06-14T21:32:13.162Z,96677.00
2023-06-14T21:34:41.925Z,96676.25
2023-06-14T21:37:10.429Z,96661.00
2023-06-14T21:39:39.241Z,96677.38
2023-06-14T21:42:10.063Z,96677.53
2023-06-14T21:44:41.640Z,96687.94
2023-06-14T21:47:09.692Z,96686.31
2023-06-14T21:49:36.239Z,96683.78
2023-06-14T21:52:02.886Z,96682.28
2023-06-14T21:54:29.535Z,96689.06
2023-06-14T21:56:56.110Z,96692.63
2023-06-14T21:59:22.839Z,96700.41
2023-06-14T22:01:49.341Z,96699.63
2023-06-14T22:04:16.025Z,96699.66
2023-06-14T22:06:44.989Z,96698.03
2023-06-14T22:09:15.842Z,96699.97
2023-06-14T22:11:44.758Z,96698.38
2023-06-14T22:14:13.106Z,96712.16
2023-06-14T22:16:40.310Z,96705.38
2023-06-14T22:19:07.473Z,96709.72
2023-06-14T22:21:35.394Z,96716.78
2023-06-14T22:24:04.280Z,96716.00
2023-06-14T22:26:40.459Z,96714.31
2023-06-14T22:29:07.725Z,96715.31
2023-06-14T22:31:38.136Z,96713.69
2023-06-14T22:34:08.482Z,96720.72
2023-06-14T22:36:35.038Z,96715.66
2023-06-14T22:39:04.459Z,96721.78
2023-06-14T22:41:34.251Z,96725.44
2023-06-14T22:44:01.600Z,96710.94
2023-06-14T22:46:28.926Z,96708.47
2023-06-14T22:48:55.827Z,96707.59
2023-06-14T22:51:23.081Z,96708.47
2023-06-14T22:53:51.325Z,96702.59
2023-06-14T22:56:19.449Z,96703.38
2023-06-14T22:58:47.821Z,96707.00
2023-06-14T23:01:18.982Z,96710.44
2023-06-14T23:03:48.362Z,96712.25
2023-06-14T23:06:25.930Z,96714.78
2023-06-14T23:08:54.872Z,96719.13
2023-06-14T23:11:22.910Z,96720.88
2023-06-14T23:13:51.447Z,96717.50
2023-06-14T23:16:19.049Z,96711.47
2023-06-14T23:18:48.705Z,96706.31
2023-06-14T23:21:19.612Z,96703.78
2023-06-14T23:23:48.858Z,96707.28
2023-06-14T23:26:16.364Z,96705.56
2023-06-14T23:28:43.460Z,96697.84
2023-06-14T23:31:10.378Z,96700.53
2023-06-14T23:33:37.503Z,96693.69
2023-06-14T23:36:07.744Z,96697.16
2023-06-14T23:38:34.979Z,96701.50
2023-06-14T23:41:02.743Z,96694.72
2023-06-14T23:43:31.066Z,96699.88
2023-06-14T23:45:58.702Z,96694.84
2023-06-14T23:48:28.091Z,96696.72
2023-06-14T23:50:55.838Z,96696.81
2023-06-14T23:53:28.349Z,96693.59
2023-06-14T23:55:54.835Z,96692.75
2023-06-14T23:58:22.612Z,96697.13
